createdAt,value
2022-08-17T00:07:25.781Z,0.00
2022-08-17T00:17:32.985Z,0.00
2022-08-17T00:27:40.371Z,0.00
2022-08-17T00:37:47.148Z,0.00
2022-08-17T00:49:26.216Z,0.00
2022-08-17T00:59:31.990Z,0.00
2022-08-17T01:09:38.953Z,0.00
2022-08-17T01:19:45.869Z,0.00
2022-08-17T01:29:53.231Z,0.00
2022-08-17T01:40:00.510Z,0.00
2022-08-17T01:50:08.077Z,0.00
2022-08-17T02:00:14.895Z,0.00
2022-08-17T02:10:22.126Z,0.00
2022-08-17T02:20:41.985Z,0.00
2022-08-17T02:31:01.105Z,0.00
2022-08-17T02:40:53.373Z,0.00
2022-08-17T02:51:00.893Z,0.00
2022-08-17T03:01:08.197Z,0.00
2022-08-17T03:11:15.569Z,0.00
2022-08-17T03:21:22.676Z,0.00
2022-08-17T03:31:29.558Z,0.00
2022-08-17T03:41:36.619Z,4.00
2022-08-17T03:51:43.909Z,32.00
2022-08-17T04:01:51.398Z,112.00
2022-08-17T04:12:02.358Z,264.00
2022-08-17T04:22:10.889Z,516.00
2022-08-17T04:33:05.526Z,732.00
2022-08-17T04:42:35.058Z,916.00
2022-08-17T04:52:43.703Z,1088.00
2022-08-17T05:02:51.138Z,1136.00
2022-08-17T05:12:58.605Z,1268.00
2022-08-17T05:23:05.957Z,1300.00
2022-08-17T05:33:13.399Z,1384.00
2022-08-17T05:43:20.865Z,1644.00
2022-08-17T05:53:28.024Z,1860.00
2022-08-17T06:03:34.752Z,2004.00
2022-08-17T06:13:42.265Z,2276.00
2022-08-17T06:23:49.440Z,2556.00
2022-08-17T06:33:56.809Z,2676.00
2022-08-17T06:44:03.895Z,2892.00
2022-08-17T06:54:11.157Z,2644.00
2022-08-17T07:04:18.532Z,2708.00
2022-08-17T07:14:25.713Z,2680.00
2022-08-17T07:24:32.626Z,2484.00
2022-08-17T07:34:39.226Z,2524.00
2022-08-17T07:44:45.831Z,2640.00
2022-08-17T07:54:52.734Z,3088.00
2022-08-17T08:05:01.088Z,3104.00
2022-08-17T08:15:08.782Z,3208.00
2022-08-17T08:25:15.681Z,3412.00
2022-08-17T08:35:22.945Z,3692.00
2022-08-17T08:45:29.676Z,3984.00
2022-08-17T08:55:36.063Z,4176.00
2022-08-17T09:05:43.237Z,4424.00
2022-08-17T09:15:50.608Z,4380.00
2022-08-17T09:25:57.147Z,4548.00
2022-08-17T09:36:03.464Z,4652.00
2022-08-17T09:46:09.828Z,5056.00
2022-08-17T09:56:16.277Z,5520.00
2022-08-17T10:06:24.285Z,6312.00
2022-08-17T10:16:30.525Z,6980.00
2022-08-17T10:26:55.948Z,7608.00
2022-08-17T10:36:48.679Z,9732.00
2022-08-17T10:46:54.860Z,99008.00
2022-08-17T10:57:01.022Z,84448.00
2022-08-17T11:07:08.757Z,80064.00
2022-08-17T11:17:16.691Z,78624.00
2022-08-17T11:27:25.373Z,47200.00
2022-08-17T11:37:32.145Z,65600.00
2022-08-17T11:47:38.528Z,48448.00
2022-08-17T11:57:45.236Z,70976.00
2022-08-17T12:07:51.738Z,47328.00
2022-08-17T12:17:58.397Z,65888.00
2022-08-17T12:28:07.614Z,71872.00
2022-08-17T12:38:26.792Z,72448.00
2022-08-17T12:48:26.019Z,72288.00
2022-08-17T12:58:31.941Z,69088.00
2022-08-17T13:08:39.971Z,61536.00
2022-08-17T13:18:46.370Z,57184.00
2022-08-17T13:28:52.624Z,44416.00
2022-08-17T13:38:59.226Z,6024.00
2022-08-17T13:49:05.139Z,6068.00
2022-08-17T13:59:14.265Z,10052.00
2022-08-17T14:09:19.705Z,15316.00
2022-08-17T14:19:28.501Z,45568.00
2022-08-17T14:29:34.332Z,31488.00
2022-08-17T14:39:41.270Z,9912.00
2022-08-17T14:49:47.740Z,8052.00
2022-08-17T14:59:55.164Z,5920.00
2022-08-17T15:10:01.759Z,12208.00
2022-08-17T15:20:14.149Z,8712.00
2022-08-17T15:30:19.793Z,5760.00
2022-08-17T15:40:26.175Z,5592.00
2022-08-17T15:50:32.524Z,3948.00
2022-08-17T16:00:49.393Z,3588.00
2022-08-17T16:10:49.734Z,4208.00
2022-08-17T16:20:56.134Z,4084.00
2022-08-17T16:31:02.256Z,3888.00
2022-08-17T16:41:08.717Z,1816.00
2022-08-17T16:51:15.100Z,1268.00
2022-08-17T17:01:21.213Z,984.00
2022-08-17T17:11:27.645Z,1328.00
2022-08-17T17:21:33.786Z,940.00
2022-08-17T17:31:40.178Z,920.00
2022-08-17T17:41:46.233Z,548.00
2022-08-17T17:52:03.568Z,472.00
2022-08-17T18:02:03.701Z,348.00
2022-08-17T18:12:10.347Z,260.00
2022-08-17T18:22:18.799Z,148.00
2022-08-17T18:32:24.880Z,68.00
2022-08-17T18:42:31.307Z,20.00
2022-08-17T18:52:37.444Z,8.00
2022-08-17T19:02:45.998Z,0.00
2022-08-17T19:12:52.090Z,0.00
2022-08-17T19:22:59.787Z,0.00
2022-08-17T19:33:05.739Z,0.00
2022-08-17T19:43:14.375Z,0.00
2022-08-17T19:53:21.749Z,0.00
2022-08-17T20:03:29.673Z,0.00
2022-08-17T20:13:35.394Z,0.00
2022-08-17T20:23:42.688Z,0.00
2022-08-17T20:33:50.128Z,0.00
2022-08-17T20:43:58.290Z,0.00
2022-08-17T20:54:04.661Z,0.00
2022-08-17T21:04:13.992Z,0.00
2022-08-17T21:14:21.038Z,0.00
2022-08-17T21:24:28.173Z,0.00
2022-08-17T21:34:35.316Z,0.00
2022-08-17T21:44:42.609Z,0.00
2022-08-17T21:54:49.729Z,0.00
2022-08-17T22:04:57.115Z,0.00
2022-08-17T22:15:04.514Z,0.00
2022-08-17T22:25:12.029Z,0.00
2022-08-17T22:35:19.616Z,0.00
2022-08-17T22:45:27.045Z,0.00
2022-08-17T22:55:34.385Z,0.00
2022-08-17T23:05:41.724Z,0.00
2022-08-17T23:15:49.053Z,0.00
2022-08-17T23:26:03.150Z,0.00
2022-08-17T23:36:10.658Z,0.00
2022-08-17T23:46:17.963Z,0.00
2022-08-17T23:56:25.834Z,0.00
